createdAt,value
2023-07-17T00:02:27.114Z,18.20
2023-07-17T00:06:29.364Z,18.10
2023-07-17T00:10:31.590Z,18.10
2023-07-17T00:14:33.502Z,17.90
2023-07-17T00:18:36.108Z,17.90
2023-07-17T00:22:38.253Z,17.80
2023-07-17T00:26:40.254Z,17.90
2023-07-17T00:30:43.663Z,17.80
2023-07-17T00:34:46.991Z,17.90
2023-07-17T00:38:50.221Z,17.90
2023-07-17T00:42:58.408Z,18.00
2023-07-17T00:47:00.815Z,17.80
2023-07-17T00:51:02.800Z,18.00
2023-07-17T00:55:05.613Z,18.00
2023-07-17T00:59:07.856Z,17.80
2023-07-17T01:03:10.107Z,17.40
2023-07-17T01:07:12.362Z,17.40
2023-07-17T01:11:15.654Z,17.30
2023-07-17T01:15:17.883Z,17.50
2023-07-17T01:19:19.906Z,17.60
2023-07-17T01:23:21.887Z,17.70
2023-07-17T01:27:24.014Z,17.90
2023-07-17T01:31:26.753Z,17.90
2023-07-17T01:35:28.904Z,17.90
2023-07-17T01:39:30.863Z,17.80
2023-07-17T01:43:32.780Z,17.50
2023-07-17T01:47:34.780Z,17.60
2023-07-17T01:51:36.865Z,17.70
2023-07-17T01:55:38.808Z,17.60
2023-07-17T01:59:40.814Z,17.60
2023-07-17T02:03:43.337Z,17.40
2023-07-17T02:07:45.410Z,17.50
2023-07-17T02:11:47.425Z,17.50
2023-07-17T02:15:49.381Z,17.50
2023-07-17T02:19:51.253Z,17.40
2023-07-17T02:23:53.178Z,17.50
2023-07-17T02:27:55.314Z,17.60
2023-07-17T02:31:57.344Z,17.80
2023-07-17T02:36:01.451Z,17.60
2023-07-17T02:40:12.842Z,17.60
2023-07-17T02:44:14.928Z,17.40
2023-07-17T02:48:16.847Z,17.30
2023-07-17T02:52:18.856Z,16.90
2023-07-17T02:56:21.230Z,16.80
2023-07-17T03:00:23.304Z,17.00
2023-07-17T03:04:26.538Z,17.10
2023-07-17T03:08:28.547Z,17.30
2023-07-17T03:12:30.474Z,17.20
2023-07-17T03:16:32.712Z,17.20
2023-07-17T03:20:35.802Z,17.30
2023-07-17T03:24:37.944Z,16.80
2023-07-17T03:28:39.892Z,16.90
2023-07-17T03:32:42.771Z,17.10
2023-07-17T03:36:44.804Z,17.20
2023-07-17T03:40:46.727Z,17.50
2023-07-17T03:44:48.896Z,17.40
2023-07-17T03:48:50.767Z,17.50
2023-07-17T03:52:52.721Z,17.60
2023-07-17T03:56:54.775Z,17.70
2023-07-17T04:00:56.699Z,17.60
2023-07-17T04:05:07.428Z,17.50
2023-07-17T04:09:10.879Z,17.60
2023-07-17T04:13:14.619Z,17.50
2023-07-17T04:17:17.400Z,17.60
2023-07-17T04:21:19.828Z,17.60
2023-07-17T04:25:22.457Z,17.40
2023-07-17T04:29:24.659Z,17.30
2023-07-17T04:33:34.194Z,17.40
2023-07-17T04:37:36.702Z,17.30
2023-07-17T04:41:38.683Z,16.50
2023-07-17T04:45:44.040Z,16.80
2023-07-17T04:49:54.329Z,17.20
2023-07-17T04:53:58.396Z,16.50
2023-07-17T04:58:00.574Z,16.80
2023-07-17T05:02:04.436Z,17.20
2023-07-17T05:06:06.619Z,17.40
2023-07-17T05:10:09.519Z,16.90
2023-07-17T05:14:14.577Z,17.10
2023-07-17T05:18:16.643Z,17.20
2023-07-17T05:22:18.790Z,17.30
2023-07-17T05:26:22.532Z,17.40
2023-07-17T05:30:25.092Z,17.50
2023-07-17T05:34:27.217Z,17.80
2023-07-17T05:38:29.291Z,18.00
2023-07-17T05:42:31.284Z,18.00
2023-07-17T05:46:33.317Z,17.70
2023-07-17T05:50:35.177Z,18.00
2023-07-17T05:54:37.220Z,18.00
2023-07-17T05:58:39.504Z,18.20
2023-07-17T06:02:44.651Z,18.50
2023-07-17T06:06:46.841Z,18.60
2023-07-17T06:10:50.380Z,18.70
2023-07-17T06:14:52.650Z,19.00
2023-07-17T06:18:54.601Z,19.20
2023-07-17T06:22:56.564Z,19.20
2023-07-17T06:27:00.668Z,19.00
2023-07-17T06:31:03.037Z,19.00
2023-07-17T06:35:06.901Z,19.30
2023-07-17T06:39:08.954Z,19.60
2023-07-17T06:43:10.992Z,19.80
2023-07-17T06:47:24.966Z,19.80
2023-07-17T06:51:34.894Z,20.20
2023-07-17T06:55:36.847Z,20.30
2023-07-17T06:59:38.770Z,20.60
2023-07-17T07:03:41.601Z,20.80
2023-07-17T07:07:43.702Z,20.00
2023-07-17T07:11:45.692Z,20.10
2023-07-17T07:15:48.202Z,19.10
2023-07-17T07:19:52.444Z,19.80
2023-07-17T07:23:54.360Z,19.70
2023-07-17T07:27:56.442Z,20.00
2023-07-17T07:31:58.475Z,20.10
2023-07-17T07:36:01.626Z,20.10
2023-07-17T07:40:04.651Z,19.80
2023-07-17T07:44:07.567Z,19.90
2023-07-17T07:48:10.489Z,20.20
2023-07-17T07:52:12.390Z,20.20
2023-07-17T07:56:14.372Z,19.60
2023-07-17T08:00:16.664Z,20.20
2023-07-17T08:04:19.134Z,20.00
2023-07-17T08:08:21.204Z,19.90
2023-07-17T08:12:23.240Z,20.00
2023-07-17T08:16:25.341Z,20.00
2023-07-17T08:20:27.449Z,20.10
2023-07-17T08:24:29.330Z,20.90
2023-07-17T08:28:31.497Z,21.40
2023-07-17T08:32:33.673Z,20.90
2023-07-17T08:36:35.735Z,21.30
2023-07-17T08:40:40.572Z,21.40
2023-07-17T08:44:42.642Z,21.70
2023-07-17T08:48:46.206Z,21.40
2023-07-17T08:52:49.204Z,20.90
2023-07-17T08:56:52.279Z,20.50
2023-07-17T09:00:55.032Z,21.00
2023-07-17T09:04:57.028Z,20.80
2023-07-17T09:08:59.205Z,21.10
2023-07-17T09:13:01.411Z,21.60
2023-07-17T09:17:10.963Z,21.30
2023-07-17T09:21:14.746Z,21.70
2023-07-17T09:25:17.890Z,21.90
2023-07-17T09:29:23.864Z,21.40
2023-07-17T09:33:26.184Z,21.40
2023-07-17T09:37:32.683Z,21.80
2023-07-17T09:41:35.404Z,21.10
2023-07-17T09:45:37.985Z,21.70
2023-07-17T09:49:40.904Z,21.90
2023-07-17T09:53:46.546Z,21.40
2023-07-17T09:57:51.701Z,22.10
2023-07-17T10:01:56.775Z,21.70
2023-07-17T10:06:01.179Z,22.00
2023-07-17T10:10:04.339Z,20.30
2023-07-17T10:14:06.585Z,21.20
2023-07-17T10:18:12.691Z,22.10
2023-07-17T10:22:15.880Z,22.70
2023-07-17T10:26:20.909Z,23.10
2023-07-17T10:30:34.159Z,22.40
2023-07-17T10:34:54.847Z,22.50
2023-07-17T10:38:56.761Z,22.40
2023-07-17T10:43:18.142Z,22.60
2023-07-17T10:47:20.859Z,22.10
2023-07-17T10:51:31.714Z,21.90
2023-07-17T10:55:34.037Z,22.50
2023-07-17T10:59:37.576Z,22.70
2023-07-17T11:03:39.537Z,22.40
2023-07-17T11:07:42.277Z,22.80
2023-07-17T11:11:47.021Z,22.60
2023-07-17T11:15:49.278Z,22.50
2023-07-17T11:20:03.923Z,22.30
2023-07-17T11:24:08.000Z,22.60
2023-07-17T11:28:10.202Z,22.80
2023-07-17T11:32:12.491Z,23.10
2023-07-17T11:36:17.749Z,22.90
2023-07-17T11:40:19.771Z,23.00
2023-07-17T11:44:27.744Z,22.70
2023-07-17T11:48:31.534Z,22.90
2023-07-17T11:52:33.446Z,23.40
2023-07-17T11:56:42.038Z,23.70
2023-07-17T12:00:45.007Z,23.50
2023-07-17T12:04:47.078Z,23.30
2023-07-17T12:08:49.098Z,23.50
2023-07-17T12:12:51.236Z,23.20
2023-07-17T12:16:53.276Z,23.40
2023-07-17T12:20:55.262Z,23.30
2023-07-17T12:24:57.651Z,23.60
2023-07-17T12:28:59.769Z,23.70
2023-07-17T12:33:02.367Z,23.20
2023-07-17T12:37:04.760Z,22.80
2023-07-17T12:41:06.747Z,21.80
2023-07-17T12:45:09.185Z,22.70
2023-07-17T12:49:13.239Z,23.20
2023-07-17T12:53:15.358Z,23.80
2023-07-17T12:57:17.348Z,24.20
2023-07-17T13:01:19.869Z,23.40
2023-07-17T13:05:22.297Z,23.20
2023-07-17T13:09:25.984Z,23.50
2023-07-17T13:13:28.309Z,23.40
2023-07-17T13:17:44.287Z,23.40
2023-07-17T13:21:48.090Z,23.30
2023-07-17T13:25:50.060Z,24.10
2023-07-17T13:29:51.969Z,24.10
2023-07-17T13:33:53.926Z,24.50
2023-07-17T13:37:56.199Z,24.50
2023-07-17T13:42:00.244Z,24.80
2023-07-17T13:46:02.367Z,25.00
2023-07-17T13:50:06.588Z,24.90
2023-07-17T13:54:09.790Z,24.70
2023-07-17T13:58:15.929Z,24.40
2023-07-17T14:02:18.072Z,24.20
2023-07-17T14:06:20.683Z,24.10
2023-07-17T14:10:23.712Z,24.80
2023-07-17T14:14:25.747Z,24.70
2023-07-17T14:18:27.682Z,24.50
2023-07-17T14:22:29.667Z,24.60
2023-07-17T14:26:31.740Z,24.80
2023-07-17T14:30:33.971Z,24.80
2023-07-17T14:34:40.996Z,25.00
2023-07-17T14:38:42.913Z,25.00
2023-07-17T14:42:45.015Z,24.90
2023-07-17T14:46:47.101Z,24.60
2023-07-17T14:50:49.060Z,24.70
2023-07-17T14:54:51.452Z,24.80
2023-07-17T14:58:53.658Z,24.40
2023-07-17T15:02:55.810Z,24.20
2023-07-17T15:06:58.964Z,24.40
2023-07-17T15:11:00.968Z,23.20
2023-07-17T15:15:03.334Z,23.40
2023-07-17T15:19:05.316Z,23.20
2023-07-17T15:23:07.445Z,23.50
2023-07-17T15:27:09.338Z,22.20
2023-07-17T15:31:13.359Z,22.50
2023-07-17T15:35:15.817Z,22.10
2023-07-17T15:39:18.094Z,22.00
2023-07-17T15:43:19.917Z,22.50
2023-07-17T15:47:21.858Z,23.10
2023-07-17T15:51:23.763Z,23.20
2023-07-17T15:55:25.834Z,23.80
2023-07-17T15:59:27.782Z,23.90
2023-07-17T16:03:30.096Z,24.20
2023-07-17T16:07:32.166Z,24.50
2023-07-17T16:11:34.632Z,23.70
2023-07-17T16:15:36.687Z,22.20
2023-07-17T16:19:42.570Z,22.70
2023-07-17T16:23:44.769Z,23.20
2023-07-17T16:27:46.735Z,22.90
2023-07-17T16:31:48.729Z,23.50
2023-07-17T16:35:50.973Z,23.40
2023-07-17T16:39:52.987Z,23.50
2023-07-17T16:43:55.185Z,23.30
2023-07-17T16:47:57.216Z,22.80
2023-07-17T16:51:59.244Z,22.90
2023-07-17T16:56:01.344Z,22.80
2023-07-17T17:00:05.192Z,23.80
2023-07-17T17:04:08.008Z,23.90
2023-07-17T17:08:10.231Z,24.20
2023-07-17T17:12:12.384Z,24.40
2023-07-17T17:16:14.557Z,23.90
2023-07-17T17:20:21.687Z,22.80
2023-07-17T17:24:26.826Z,23.50
2023-07-17T17:28:28.761Z,23.20
2023-07-17T17:32:30.835Z,22.60
2023-07-17T17:36:34.229Z,21.80
2023-07-17T17:40:36.348Z,22.30
2023-07-17T17:44:38.448Z,22.00
2023-07-17T17:48:40.591Z,22.30
2023-07-17T17:52:42.869Z,22.40
2023-07-17T17:56:44.764Z,22.60
2023-07-17T18:00:46.782Z,22.20
2023-07-17T18:04:49.027Z,22.80
2023-07-17T18:08:51.052Z,23.00
2023-07-17T18:12:53.607Z,21.60
2023-07-17T18:16:55.727Z,21.10
2023-07-17T18:20:58.284Z,21.70
2023-07-17T18:25:00.454Z,22.20
2023-07-17T18:29:02.471Z,21.20
2023-07-17T18:33:04.939Z,21.10
2023-07-17T18:37:07.135Z,21.80
2023-07-17T18:41:09.145Z,21.00
2023-07-17T18:45:11.244Z,21.80
2023-07-17T18:49:13.289Z,22.40
2023-07-17T18:53:15.257Z,22.60
2023-07-17T18:57:17.454Z,22.60
2023-07-17T19:01:19.704Z,22.50
2023-07-17T19:05:22.555Z,22.50
2023-07-17T19:09:27.988Z,22.30
2023-07-17T19:13:30.162Z,22.10
2023-07-17T19:17:32.200Z,22.20
2023-07-17T19:21:36.736Z,21.90
2023-07-17T19:25:38.907Z,21.50
2023-07-17T19:29:40.822Z,21.70
2023-07-17T19:33:42.934Z,21.70
2023-07-17T19:37:44.987Z,21.60
2023-07-17T19:41:49.687Z,21.60
2023-07-17T19:45:53.156Z,21.60
2023-07-17T19:49:55.203Z,21.50
2023-07-17T19:53:57.405Z,21.40
2023-07-17T19:57:59.431Z,21.30
2023-07-17T20:02:01.480Z,21.30
2023-07-17T20:06:03.573Z,21.10
2023-07-17T20:10:06.174Z,20.90
2023-07-17T20:14:08.170Z,20.80
2023-07-17T20:18:10.163Z,20.70
2023-07-17T20:22:12.162Z,20.60
2023-07-17T20:26:14.195Z,20.50
2023-07-17T20:30:19.735Z,20.40
2023-07-17T20:34:21.960Z,20.40
2023-07-17T20:38:24.588Z,20.30
2023-07-17T20:42:45.234Z,20.20
2023-07-17T20:46:47.357Z,20.00
2023-07-17T20:51:11.325Z,20.00
2023-07-17T20:55:17.328Z,19.90
2023-07-17T20:59:19.493Z,19.70
2023-07-17T21:03:21.862Z,19.50
2023-07-17T21:07:24.246Z,19.50
2023-07-17T21:11:26.814Z,19.40
2023-07-17T21:15:29.270Z,19.20
2023-07-17T21:19:31.431Z,19.20
2023-07-17T21:23:33.575Z,19.20
2023-07-17T21:27:35.525Z,19.20
2023-07-17T21:31:37.577Z,18.90
2023-07-17T21:35:39.824Z,18.80
2023-07-17T21:39:44.927Z,18.60
2023-07-17T21:43:47.037Z,18.50
2023-07-17T21:47:48.975Z,18.40
2023-07-17T21:51:50.994Z,18.40
2023-07-17T21:55:53.155Z,18.40
2023-07-17T21:59:55.235Z,18.50
2023-07-17T22:03:57.653Z,18.40
2023-07-17T22:07:59.796Z,18.40
2023-07-17T22:12:02.175Z,18.40
2023-07-17T22:16:04.412Z,18.10
2023-07-17T22:20:08.077Z,17.70
2023-07-17T22:24:10.496Z,17.40
2023-07-17T22:28:12.423Z,17.30
2023-07-17T22:32:16.949Z,17.50
2023-07-17T22:36:18.983Z,17.50
2023-07-17T22:40:21.367Z,17.50
2023-07-17T22:44:23.463Z,17.30
2023-07-17T22:48:28.908Z,17.20
2023-07-17T22:52:30.824Z,17.10
2023-07-17T22:56:33.065Z,17.00
2023-07-17T23:00:34.970Z,17.10
2023-07-17T23:04:37.430Z,17.20
2023-07-17T23:08:39.787Z,16.90
2023-07-17T23:12:42.097Z,16.60
2023-07-17T23:16:45.398Z,16.50
2023-07-17T23:20:47.355Z,16.80
2023-07-17T23:24:49.360Z,16.60
2023-07-17T23:28:52.200Z,16.20
2023-07-17T23:32:54.647Z,16.20
2023-07-17T23:36:57.043Z,16.40
2023-07-17T23:40:59.110Z,16.40
2023-07-17T23:45:02.061Z,16.50
2023-07-17T23:49:04.188Z,16.60
2023-07-17T23:53:06.173Z,16.30
2023-07-17T23:57:08.223Z,16.30
